createdAt,value
2023-02-09T00:01:41.309Z,100860.91
2023-02-09T00:04:15.655Z,100852.34
2023-02-09T00:06:48.791Z,100845.30
2023-02-09T00:09:22.328Z,100846.19
2023-02-09T00:12:13.165Z,100839.15
2023-02-09T00:14:46.557Z,100842.34
2023-02-09T00:17:19.910Z,100831.98
2023-02-09T00:19:54.908Z,100822.75
2023-02-09T00:22:28.332Z,100830.31
2023-02-09T00:25:01.833Z,100828.66
2023-02-09T00:27:36.359Z,100831.98
2023-02-09T00:30:12.113Z,100830.19
2023-02-09T00:32:45.526Z,100813.95
2023-02-09T00:35:20.621Z,100829.16
2023-02-09T00:37:54.029Z,100817.39
2023-02-09T00:40:27.583Z,100819.19
2023-02-09T00:43:01.333Z,100817.14
2023-02-09T00:45:35.250Z,100816.34
2023-02-09T00:48:09.591Z,100810.73
2023-02-09T00:50:43.111Z,100812.00
2023-02-09T00:53:16.722Z,100804.32
2023-02-09T00:55:50.664Z,100819.80
2023-02-09T00:58:24.069Z,100811.20
2023-02-09T01:00:57.199Z,100806.87
2023-02-09T01:03:30.658Z,100797.52
2023-02-09T01:06:04.264Z,100803.52
2023-02-09T01:08:38.406Z,100799.31
2023-02-09T01:11:13.603Z,100797.64
2023-02-09T01:13:47.848Z,100797.64
2023-02-09T01:16:21.797Z,100802.76
2023-02-09T01:18:55.204Z,100799.55
2023-02-09T01:21:29.364Z,100803.91
2023-02-09T01:24:02.577Z,100793.78
2023-02-09T01:26:36.297Z,100799.41
2023-02-09T01:29:09.684Z,100792.72
2023-02-09T01:31:43.650Z,100796.20
2023-02-09T01:34:19.208Z,100798.77
2023-02-09T01:36:54.449Z,100793.14
2023-02-09T01:39:29.394Z,100788.78
2023-02-09T01:42:03.731Z,100783.53
2023-02-09T01:45:25.325Z,100793.55
2023-02-09T01:48:01.832Z,100795.19
2023-02-09T01:50:38.599Z,100793.28
2023-02-09T01:53:11.920Z,100794.19
2023-02-09T01:55:48.126Z,100784.06
2023-02-09T01:58:23.793Z,100782.39
2023-02-09T02:00:59.665Z,100782.54
2023-02-09T02:03:33.392Z,100787.66
2023-02-09T02:06:10.449Z,100788.55
2023-02-09T02:08:46.176Z,100791.98
2023-02-09T02:11:21.197Z,100789.42
2023-02-09T02:13:54.419Z,100790.22
2023-02-09T02:16:43.284Z,100788.55
2023-02-09T02:22:59.347Z,100792.45
2023-02-09T02:26:11.590Z,100799.14
2023-02-09T02:28:56.164Z,100797.38
2023-02-09T02:32:18.368Z,100804.91
2023-02-09T02:34:54.596Z,100808.09
2023-02-09T02:37:50.682Z,100808.59
2023-02-09T02:40:32.298Z,100809.22
2023-02-09T02:43:10.240Z,100796.25
2023-02-09T02:45:47.316Z,100795.48
2023-02-09T02:48:26.830Z,100802.26
2023-02-09T02:51:03.446Z,100810.06
2023-02-09T02:53:39.051Z,100807.65
2023-02-09T02:56:16.250Z,100813.89
2023-02-09T02:58:52.711Z,100809.26
2023-02-09T03:01:29.359Z,100801.41
2023-02-09T03:04:05.232Z,100805.12
2023-02-09T03:06:40.168Z,100799.34
2023-02-09T03:09:13.945Z,100803.81
2023-02-09T03:11:50.103Z,100791.11
2023-02-09T03:14:43.435Z,100786.86
2023-02-09T03:17:22.748Z,100786.86
2023-02-09T03:19:59.269Z,100793.30
2023-02-09T03:22:35.976Z,100791.27
2023-02-09T03:25:12.934Z,100785.66
2023-02-09T03:27:50.283Z,100776.70
2023-02-09T03:30:25.755Z,100782.48
2023-02-09T03:32:59.377Z,100782.14
2023-02-09T03:35:38.232Z,100775.98
2023-02-09T03:38:11.671Z,100769.06
2023-02-09T03:40:45.749Z,100775.22
2023-02-09T03:43:19.436Z,100775.98
2023-02-09T03:45:52.908Z,100780.23
2023-02-09T03:48:26.370Z,100772.66
2023-02-09T03:51:01.174Z,100775.22
2023-02-09T03:53:36.579Z,100775.45
2023-02-09T03:56:10.512Z,100774.68
2023-02-09T03:58:44.000Z,100778.92
2023-02-09T04:01:17.493Z,100784.05
2023-02-09T04:03:51.351Z,100775.45
2023-02-09T04:06:24.503Z,100775.45
2023-02-09T04:08:58.088Z,100778.02
2023-02-09T04:11:32.109Z,100779.04
2023-02-09T04:14:06.457Z,100784.55
2023-02-09T04:16:40.097Z,100786.95
2023-02-09T04:19:13.762Z,100777.51
2023-02-09T04:21:47.103Z,100780.07
2023-02-09T04:24:21.964Z,100779.27
2023-02-09T04:26:55.544Z,100776.31
2023-02-09T04:29:29.480Z,100770.42
2023-02-09T04:32:02.877Z,100776.55
2023-02-09T04:34:36.278Z,100772.98
2023-02-09T04:37:09.655Z,100771.30
2023-02-09T04:39:43.043Z,100770.05
2023-02-09T04:42:16.607Z,100782.75
2023-02-09T04:44:50.097Z,100778.50
2023-02-09T04:47:23.392Z,100777.31
2023-02-09T04:49:56.814Z,100774.63
2023-02-09T04:52:30.361Z,100776.20
2023-02-09T04:55:03.696Z,100775.17
2023-02-09T04:57:53.731Z,100769.02
2023-02-09T05:00:27.386Z,100771.58
2023-02-09T05:03:00.827Z,100763.13
2023-02-09T05:05:34.124Z,100749.97
2023-02-09T05:08:08.126Z,100768.74
2023-02-09T05:10:41.985Z,100777.69
2023-02-09T05:13:15.363Z,100772.79
2023-02-09T05:15:48.784Z,100772.02
2023-02-09T05:18:22.875Z,100764.81
2023-02-09T05:20:56.183Z,100769.45
2023-02-09T05:23:29.555Z,100766.55
2023-02-09T05:26:03.357Z,100772.33
2023-02-09T05:28:36.867Z,100763.84
2023-02-09T05:31:10.390Z,100763.73
2023-02-09T05:33:43.805Z,100775.66
2023-02-09T05:36:17.181Z,100784.34
2023-02-09T05:38:50.866Z,100785.49
2023-02-09T05:41:42.022Z,100783.16
2023-02-09T05:44:15.683Z,100781.50
2023-02-09T05:46:49.138Z,100771.02
2023-02-09T05:49:22.763Z,100771.91
2023-02-09T05:51:56.297Z,100763.56
2023-02-09T05:54:30.068Z,100781.99
2023-02-09T05:57:04.262Z,100767.06
2023-02-09T05:59:37.731Z,100777.80
2023-02-09T06:02:12.114Z,100766.78
2023-02-09T06:04:45.690Z,100766.89
2023-02-09T06:07:18.801Z,100765.47
2023-02-09T06:09:52.301Z,100764.70
2023-02-09T06:12:25.851Z,100768.25
2023-02-09T06:14:59.255Z,100771.07
2023-02-09T06:17:34.442Z,100761.14
2023-02-09T06:20:09.594Z,100761.03
2023-02-09T06:22:42.972Z,100763.48
2023-02-09T06:25:16.661Z,100773.09
2023-02-09T06:27:50.150Z,100762.39
2023-02-09T06:30:24.075Z,100762.65
2023-02-09T06:32:57.517Z,100759.64
2023-02-09T06:35:30.962Z,100755.75
2023-02-09T06:38:04.513Z,100765.00
2023-02-09T06:40:38.095Z,100755.39
2023-02-09T06:43:11.850Z,100748.61
2023-02-09T06:45:45.732Z,100752.05
2023-02-09T06:48:19.309Z,100749.60
2023-02-09T06:50:52.903Z,100759.09
2023-02-09T06:53:26.634Z,100753.19
2023-02-09T06:56:03.536Z,100754.98
2023-02-09T06:58:37.598Z,100762.58
2023-02-09T07:01:15.112Z,100771.27
2023-02-09T07:03:48.756Z,100759.31
2023-02-09T07:06:23.360Z,100749.41
2023-02-09T07:08:57.256Z,100734.02
2023-02-09T07:11:31.438Z,100749.41
2023-02-09T07:14:04.587Z,100753.77
2023-02-09T07:16:38.015Z,100750.29
2023-02-09T07:19:11.484Z,100755.67
2023-02-09T07:21:45.052Z,100750.55
2023-02-09T07:24:18.616Z,100748.97
2023-02-09T07:26:54.818Z,100742.97
2023-02-09T07:29:28.383Z,100757.38
2023-02-09T07:32:04.640Z,100761.94
2023-02-09T07:34:38.525Z,100757.33
2023-02-09T07:37:13.159Z,100765.69
2023-02-09T07:39:46.865Z,100754.33
2023-02-09T07:42:23.071Z,100758.80
2023-02-09T07:44:59.515Z,100758.35
2023-02-09T07:47:35.585Z,100740.60
2023-02-09T07:50:10.401Z,100739.17
2023-02-09T07:52:43.843Z,100740.96
2023-02-09T07:55:17.364Z,100746.31
2023-02-09T07:57:50.802Z,100748.36
2023-02-09T08:00:25.658Z,100749.34
2023-02-09T08:03:00.419Z,100741.33
2023-02-09T08:05:37.140Z,100741.33
2023-02-09T08:08:10.217Z,100745.23
2023-02-09T08:10:44.490Z,100747.69
2023-02-09T08:13:18.356Z,100735.84
2023-02-09T08:15:54.757Z,100736.97
2023-02-09T08:21:14.051Z,100739.66
2023-02-09T08:23:50.467Z,100740.57
2023-02-09T08:26:24.336Z,100741.23
2023-02-09T08:28:58.906Z,100737.86
2023-02-09T08:31:32.744Z,100731.73
2023-02-09T08:34:06.804Z,100733.64
2023-02-09T08:36:41.537Z,100736.31
2023-02-09T08:39:15.302Z,100737.19
2023-02-09T08:41:49.012Z,100729.63
2023-02-09T08:44:22.986Z,100735.19
2023-02-09T08:46:56.707Z,100737.44
2023-02-09T08:49:30.461Z,100741.45
2023-02-09T08:52:03.931Z,100741.45
2023-02-09T08:54:37.764Z,100739.89
2023-02-09T08:57:11.151Z,100734.30
2023-02-09T08:59:44.767Z,100727.70
2023-02-09T09:02:18.421Z,100727.14
2023-02-09T09:04:52.010Z,100721.02
2023-02-09T09:07:25.850Z,100721.80
2023-02-09T09:09:59.413Z,100729.04
2023-02-09T09:12:34.666Z,100724.78
2023-02-09T09:15:08.869Z,100734.05
2023-02-09T09:17:42.467Z,100732.68
2023-02-09T09:20:16.524Z,100723.04
2023-02-09T09:22:50.152Z,100722.90
2023-02-09T09:25:23.341Z,100727.60
2023-02-09T09:27:56.856Z,100722.95
2023-02-09T09:30:30.376Z,100725.96
2023-02-09T09:33:03.994Z,100723.19
2023-02-09T09:35:37.616Z,100725.43
2023-02-09T09:38:11.194Z,100722.33
2023-02-09T09:40:47.044Z,100727.74
2023-02-09T09:43:24.548Z,100723.48
2023-02-09T09:45:58.678Z,100718.34
2023-02-09T09:48:35.597Z,100712.86
2023-02-09T09:51:12.890Z,100707.84
2023-02-09T09:53:48.759Z,100710.62
2023-02-09T09:56:26.132Z,100710.52
2023-02-09T09:59:00.678Z,100707.41
2023-02-09T10:01:35.308Z,100707.41
2023-02-09T10:04:15.150Z,100702.27
2023-02-09T10:06:51.125Z,100702.03
2023-02-09T10:09:32.834Z,100695.81
2023-02-09T10:12:18.064Z,100701.36
2023-02-09T10:14:51.662Z,100687.82
2023-02-09T10:17:24.724Z,100702.84
2023-02-09T10:20:05.994Z,100696.69
2023-02-09T10:22:39.535Z,100692.56
2023-02-09T10:25:39.616Z,100692.33
2023-02-09T10:28:23.177Z,100690.56
2023-02-09T10:30:58.468Z,100687.77
2023-02-09T10:33:34.598Z,100687.56
2023-02-09T10:36:11.702Z,100684.75
2023-02-09T10:38:45.512Z,100679.95
2023-02-09T10:41:19.348Z,100677.91
2023-02-09T10:43:55.273Z,100678.11
2023-02-09T10:46:29.127Z,100673.41
2023-02-09T10:49:03.530Z,100670.73
2023-02-09T10:51:37.865Z,100664.48
2023-02-09T10:54:14.231Z,100672.20
2023-02-09T10:56:50.257Z,100670.63
2023-02-09T10:59:26.346Z,100660.55
2023-02-09T11:02:01.913Z,100659.97
2023-02-09T11:04:40.250Z,100657.83
2023-02-09T11:07:16.481Z,100647.73
2023-02-09T11:09:52.683Z,100651.42
2023-02-09T11:12:29.006Z,100647.58
2023-02-09T11:15:02.846Z,100646.64
2023-02-09T11:17:38.208Z,100640.22
2023-02-09T11:20:26.938Z,100634.90
2023-02-09T11:23:10.486Z,100637.98
2023-02-09T11:25:48.524Z,100639.76
2023-02-09T11:32:15.051Z,100630.58
2023-02-09T11:37:57.714Z,100633.11
2023-02-09T11:40:35.410Z,100632.57
2023-02-09T11:43:18.739Z,100642.44
2023-02-09T11:45:53.412Z,100636.31
2023-02-09T11:48:29.752Z,100636.09
2023-02-09T11:51:09.128Z,100637.78
2023-02-09T11:53:46.216Z,100634.00
2023-02-09T11:56:21.582Z,100635.69
2023-02-09T11:58:59.300Z,100634.42
2023-02-09T12:01:33.885Z,100626.13
2023-02-09T12:04:13.172Z,100620.48
2023-02-09T12:06:49.871Z,100623.45
2023-02-09T12:12:35.520Z,100618.34
2023-02-09T12:15:18.377Z,100628.80
2023-02-09T12:17:54.798Z,100631.17
2023-02-09T12:20:32.227Z,100633.52
2023-02-09T12:23:08.521Z,100636.48
2023-02-09T12:26:15.393Z,100646.53
2023-02-09T12:28:50.100Z,100631.69
2023-02-09T12:31:27.441Z,100619.77
2023-02-09T12:34:17.212Z,100631.78
2023-02-09T12:37:28.636Z,100636.05
2023-02-09T12:40:26.439Z,100618.30
2023-02-09T12:46:20.578Z,100622.41
2023-02-09T12:49:14.669Z,100622.47
2023-02-09T12:55:15.137Z,100620.62
2023-02-09T12:57:52.983Z,100621.35
2023-02-09T13:03:43.815Z,100598.73
2023-02-09T13:06:25.455Z,100606.51
2023-02-09T13:09:01.768Z,100606.70
2023-02-09T13:11:41.111Z,100609.48
2023-02-09T13:14:16.407Z,100608.59
2023-02-09T13:21:00.900Z,100608.80
2023-02-09T13:23:39.862Z,100603.55
2023-02-09T13:26:23.067Z,100603.03
2023-02-09T13:29:19.646Z,100586.30
2023-02-09T13:31:50.241Z,100593.66
2023-02-09T13:34:25.294Z,100595.02
2023-02-09T13:37:04.140Z,100596.81
2023-02-09T13:39:40.881Z,100590.45
2023-02-09T13:42:23.404Z,100604.09
2023-02-09T13:44:58.912Z,100598.84
2023-02-09T13:47:34.106Z,100595.27
2023-02-09T13:50:14.049Z,100588.23
2023-02-09T13:52:47.761Z,100592.37
2023-02-09T13:55:22.904Z,100581.41
2023-02-09T13:57:59.586Z,100581.54
2023-02-09T14:00:37.925Z,100583.20
2023-02-09T14:03:16.377Z,100577.95
2023-02-09T14:05:53.258Z,100576.95
2023-02-09T14:08:28.478Z,100571.03
2023-02-09T14:11:05.009Z,100572.14
2023-02-09T14:13:41.210Z,100568.69
2023-02-09T14:16:17.911Z,100579.75
2023-02-09T14:18:53.608Z,100568.45
2023-02-09T14:21:32.255Z,100567.48
2023-02-09T14:24:21.686Z,100570.05
2023-02-09T14:27:03.327Z,100566.66
2023-02-09T14:29:38.277Z,100564.77
2023-02-09T14:32:33.093Z,100555.08
2023-02-09T14:35:04.629Z,100555.08
2023-02-09T14:37:39.923Z,100550.95
2023-02-09T14:40:24.273Z,100530.64
2023-02-09T14:43:03.125Z,100544.80
2023-02-09T14:45:43.632Z,100540.34
2023-02-09T14:51:14.241Z,100529.91
2023-02-09T14:53:48.631Z,100533.21
2023-02-09T14:56:26.534Z,100538.94
2023-02-09T14:59:00.348Z,100538.94
2023-02-09T15:01:33.913Z,100534.80
2023-02-09T15:04:07.294Z,100537.23
2023-02-09T15:06:43.728Z,100534.47
2023-02-09T15:09:21.508Z,100531.13
2023-02-09T15:12:08.633Z,100533.70
2023-02-09T15:14:46.580Z,100522.41
2023-02-09T15:17:21.982Z,100528.22
2023-02-09T15:19:55.998Z,100531.03
2023-02-09T15:22:29.618Z,100525.75
2023-02-09T15:25:03.195Z,100523.31
2023-02-09T15:27:40.097Z,100522.64
2023-02-09T15:30:18.892Z,100513.82
2023-02-09T15:32:52.904Z,100522.20
2023-02-09T15:35:28.372Z,100512.61
2023-02-09T15:38:03.344Z,100520.41
2023-02-09T15:40:57.469Z,100508.45
2023-02-09T15:43:48.675Z,100511.83
2023-02-09T15:46:39.694Z,100513.30
2023-02-09T15:49:13.479Z,100521.44
2023-02-09T15:51:47.001Z,100520.27
2023-02-09T15:54:27.341Z,100527.97
2023-02-09T15:57:01.556Z,100524.28
2023-02-09T15:59:35.192Z,100519.25
2023-02-09T16:02:14.397Z,100527.97
2023-02-09T16:04:49.354Z,100520.03
2023-02-09T16:07:26.992Z,100515.80
2023-02-09T16:10:00.615Z,100523.61
2023-02-09T16:12:36.844Z,100511.64
2023-02-09T16:15:17.886Z,100497.69
2023-02-09T16:17:51.869Z,100513.68
2023-02-09T16:20:26.289Z,100518.71
2023-02-09T16:23:11.735Z,100516.82
2023-02-09T16:25:37.066Z,100505.77
2023-02-09T16:28:13.718Z,100529.08
2023-02-09T16:30:53.538Z,100513.48
2023-02-09T16:33:27.966Z,100525.09
2023-02-09T16:36:05.313Z,100523.52
2023-02-09T16:38:38.915Z,100528.64
2023-02-09T16:41:17.141Z,100517.30
2023-02-09T16:43:51.568Z,100505.44
2023-02-09T16:46:25.252Z,100502.66
2023-02-09T16:48:59.166Z,100504.32
2023-02-09T16:51:32.755Z,100504.32
2023-02-09T16:54:07.799Z,100495.84
2023-02-09T16:56:53.607Z,100482.03
2023-02-09T16:59:16.526Z,100475.44
2023-02-09T17:01:50.115Z,100481.22
2023-02-09T17:04:23.514Z,100489.73
2023-02-09T17:06:57.109Z,100484.45
2023-02-09T17:09:30.412Z,100479.45
2023-02-09T17:12:03.744Z,100477.77
2023-02-09T17:14:37.241Z,100478.88
2023-02-09T17:17:13.796Z,100474.09
2023-02-09T17:19:48.405Z,100451.22
2023-02-09T17:22:22.426Z,100485.03
2023-02-09T17:24:56.117Z,100462.61
2023-02-09T17:27:33.794Z,100455.92
2023-02-09T17:30:12.180Z,100448.42
2023-02-09T17:32:45.789Z,100472.53
2023-02-09T17:35:48.779Z,100466.63
2023-02-09T17:38:02.352Z,100448.52
2023-02-09T17:40:38.017Z,100440.42
2023-02-09T17:43:13.088Z,100449.91
2023-02-09T17:45:49.743Z,100445.65
2023-02-09T17:48:24.577Z,100454.91
2023-02-09T17:51:00.358Z,100449.67
2023-02-09T17:53:36.213Z,100440.31
2023-02-09T17:56:10.194Z,100453.92
2023-02-09T17:58:44.667Z,100460.95
2023-02-09T18:01:27.291Z,100446.43
2023-02-09T18:04:04.078Z,100432.48
2023-02-09T18:06:40.213Z,100416.78
2023-02-09T18:09:16.188Z,100430.39
2023-02-09T18:12:02.517Z,100421.91
2023-02-09T18:14:36.963Z,100430.39
2023-02-09T18:17:10.902Z,100389.04
2023-02-09T18:19:44.786Z,100420.03
2023-02-09T18:22:20.181Z,100399.26
2023-02-09T18:24:55.435Z,100400.17
2023-02-09T18:27:29.458Z,100394.36
2023-02-09T18:30:03.370Z,100411.55
2023-02-09T18:32:36.947Z,100415.67
2023-02-09T18:35:14.123Z,100407.97
2023-02-09T18:37:48.254Z,100390.88
2023-02-09T18:40:22.528Z,100378.05
2023-02-09T18:43:08.716Z,100383.77
2023-02-09T18:46:20.620Z,100406.66
2023-02-09T18:48:57.164Z,100375.86
2023-02-09T18:51:31.375Z,100378.77
2023-02-09T18:54:09.408Z,100389.04
2023-02-09T18:56:42.754Z,100379.01
2023-02-09T18:59:17.860Z,100394.95
2023-02-09T19:01:51.699Z,100371.98
2023-02-09T19:04:25.659Z,100371.41
2023-02-09T19:06:59.969Z,100423.87
2023-02-09T19:09:33.794Z,100386.84
2023-02-09T19:12:09.111Z,100364.53
2023-02-09T19:14:45.174Z,100379.48
2023-02-09T19:17:20.234Z,100372.70
2023-02-09T19:19:53.934Z,100369.03
2023-02-09T19:22:28.153Z,100390.33
2023-02-09T19:25:05.177Z,100387.77
2023-02-09T19:27:38.657Z,100359.55
2023-02-09T19:30:32.930Z,100372.84
2023-02-09T19:33:09.064Z,100339.36
2023-02-09T19:35:44.221Z,100337.38
2023-02-09T19:38:38.136Z,100338.86
2023-02-09T19:41:13.679Z,100356.91
2023-02-09T19:43:50.694Z,100349.89
2023-02-09T19:46:35.027Z,100350.33
2023-02-09T19:49:08.443Z,100336.84
2023-02-09T19:51:41.963Z,100341.97
2023-02-09T19:54:35.985Z,100338.42
2023-02-09T19:57:09.873Z,100363.28
2023-02-09T19:59:43.385Z,100334.27
2023-02-09T20:02:18.177Z,100306.20
2023-02-09T20:04:52.068Z,100304.52
2023-02-09T20:07:25.877Z,100317.13
2023-02-09T20:09:59.456Z,100299.28
2023-02-09T20:12:34.522Z,100289.91
2023-02-09T20:15:09.375Z,100287.44
2023-02-09T20:18:15.978Z,100290.58
2023-02-09T20:21:16.372Z,100292.37
2023-02-09T20:23:50.293Z,100286.56
2023-02-09T20:26:26.773Z,100275.88
2023-02-09T20:29:01.070Z,100275.19
2023-02-09T20:31:37.127Z,100288.79
2023-02-09T20:34:13.217Z,100281.67
2023-02-09T20:37:23.529Z,100270.55
2023-02-09T20:40:09.572Z,100272.33
2023-02-09T20:43:05.797Z,100260.05
2023-02-09T20:46:15.130Z,100261.50
2023-02-09T20:48:52.458Z,100266.29
2023-02-09T20:51:26.653Z,100259.95
2023-02-09T20:54:00.146Z,100259.08
2023-02-09T20:56:36.804Z,100263.30
2023-02-09T20:59:10.533Z,100271.42
2023-02-09T21:01:45.216Z,100268.75
2023-02-09T21:04:18.840Z,100260.19
2023-02-09T21:06:52.473Z,100243.80
2023-02-09T21:09:28.388Z,100255.84
2023-02-09T21:12:01.930Z,100274.77
2023-02-09T21:14:42.196Z,100264.50
2023-02-09T21:17:11.518Z,100247.47
2023-02-09T21:19:45.119Z,100250.91
2023-02-09T21:22:18.797Z,100244.57
2023-02-09T21:24:52.610Z,100242.54
2023-02-09T21:27:26.355Z,100234.75
2023-02-09T21:29:59.899Z,100245.20
2023-02-09T21:32:35.919Z,100236.44
2023-02-09T21:35:11.225Z,100244.91
2023-02-09T21:37:44.799Z,100219.03
2023-02-09T21:40:20.165Z,100218.25
2023-02-09T21:42:53.962Z,100222.61
2023-02-09T21:45:27.406Z,100205.23
2023-02-09T21:48:02.438Z,100204.46
2023-02-09T21:50:35.888Z,100239.34
2023-02-09T21:53:09.414Z,100203.13
2023-02-09T21:55:42.941Z,100222.22
2023-02-09T21:58:16.355Z,100201.03
2023-02-09T22:00:54.639Z,100196.59
2023-02-09T22:03:26.632Z,100180.44
2023-02-09T22:06:00.776Z,100200.36
2023-02-09T22:08:34.241Z,100184.98
2023-02-09T22:11:08.966Z,100184.20
2023-02-09T22:13:42.480Z,100181.84
2023-02-09T22:16:18.715Z,100177.48
2023-02-09T22:18:52.334Z,100176.52
2023-02-09T22:21:26.072Z,100188.32
2023-02-09T22:23:59.759Z,100178.65
2023-02-09T22:26:33.150Z,100158.72
2023-02-09T22:29:06.623Z,100184.93
2023-02-09T22:31:40.203Z,100154.95
2023-02-09T22:34:13.603Z,100146.26
2023-02-09T22:36:46.871Z,100132.57
2023-02-09T22:39:20.021Z,100150.18
2023-02-09T22:41:54.845Z,100157.86
2023-02-09T22:44:30.144Z,100140.06
2023-02-09T22:47:03.738Z,100124.78
2023-02-09T22:49:37.051Z,100156.11
2023-02-09T22:52:10.681Z,100149.20
2023-02-09T22:54:44.095Z,100150.18
2023-02-09T22:57:17.394Z,100121.02
2023-02-09T22:59:50.840Z,100114.30
2023-02-09T23:02:24.638Z,100112.91
2023-02-09T23:04:58.060Z,100113.10
2023-02-09T23:07:31.686Z,100123.16
2023-02-09T23:10:05.422Z,100099.31
2023-02-09T23:12:40.096Z,100099.41
2023-02-09T23:15:13.882Z,100099.52
2023-02-09T23:17:47.383Z,100092.83
2023-02-09T23:20:21.578Z,100107.52
2023-02-09T23:22:56.444Z,100095.59
2023-02-09T23:25:30.376Z,100082.68
2023-02-09T23:28:03.811Z,100079.02
2023-02-09T23:30:37.925Z,100075.67
2023-02-09T23:33:11.308Z,100079.02
2023-02-09T23:35:45.065Z,100084.47
2023-02-09T23:38:20.075Z,100068.41
2023-02-09T23:40:53.468Z,100068.99
2023-02-09T23:43:27.092Z,100054.49
2023-02-09T23:46:02.418Z,100052.61
2023-02-09T23:48:36.558Z,100056.96
2023-02-09T23:51:13.689Z,100044.92
2023-02-09T23:53:47.722Z,100038.12
2023-02-09T23:56:21.765Z,100050.05
2023-02-09T23:58:55.870Z,100060.30
